MMPR/PVR METAR and TAF weather

Enter ICAO airport designator
Station Type Date Time Source
MMPR METAR 2019/08/25 05:44 UTC NOAA

MMPR 250544Z 03006KT 12SM SCT090 BKN250 29/25 A2992 RMK SLP131 52006 958 8/038


Station Type Date Time Source
MMPR Decoded METAR 2019/08/25 05:44 UTC NOAA

Station name not available
Aug 25, 2019 - 01:44 AM EDT / 2019.08.25 0544 UTC
Wind: from the NNE (030 degrees) at 7 MPH (6 KT):0
Visibility: 12 mile(s):0
Sky conditions: mostly cloudy
Temperature: 84 F (29 C)
Dew Point: 77 F (25 C)
Relative Humidity: 79%
Pressure (altimeter): 29.92 in. Hg (1013 hPa)
Pressure tendency: 0.02 inches (0.6 hPa) higher than three hours ago
ob: MMPR 250544Z 03006KT 12SM SCT090 BKN250 29/25 A2992 RMK SLP131 52006 958 8/038
cycle: 5

Station Type Date Time Source
MMPR TAF 2019/08/25 06:15 UTC NOAA

TAF MMPR 250513Z 2506/2612 02005KT P6SM SCT080 BKN250 TX34/2521Z TN27/2512Z
FM251600 20010KT P6SM SCT020 SCT250
FM252200 23012KT P6SM BKN020CB OVC080
TEMPO 2523/2603 3SM TSRA

Example: see airport list